createdAt,value
2022-07-29T00:27:59.050Z,73.60
2022-07-29T00:40:43.989Z,73.10
2022-07-29T00:49:06.358Z,73.20
2022-07-29T00:53:14.818Z,73.30
2022-07-29T01:10:18.333Z,73.80
2022-07-29T01:14:25.071Z,73.80
2022-07-29T01:18:49.671Z,73.70
2022-07-29T01:23:09.121Z,73.90
2022-07-29T01:27:37.719Z,73.70
2022-07-29T01:36:14.373Z,73.80
2022-07-29T01:45:02.477Z,74.00
2022-07-29T02:19:55.297Z,74.10
2022-07-29T02:45:47.461Z,74.30
2022-07-29T02:55:02.734Z,74.50
2022-07-29T03:03:41.752Z,74.70
2022-07-29T03:25:11.430Z,74.60
2022-07-29T05:04:44.081Z,75.60
2022-07-29T05:08:47.053Z,75.70
2022-07-29T05:12:50.211Z,75.90
2022-07-29T05:16:54.240Z,76.00
2022-07-29T05:20:57.414Z,76.00
2022-07-29T05:25:04.295Z,75.80
2022-07-29T05:29:44.343Z,75.70
2022-07-29T05:33:37.261Z,75.60
2022-07-29T05:37:42.014Z,75.60
2022-07-29T05:41:50.136Z,75.50
2022-07-29T05:45:54.889Z,75.70
2022-07-29T05:49:58.202Z,75.60
2022-07-29T05:54:01.303Z,75.60
2022-07-29T05:58:04.240Z,75.50
2022-07-29T06:02:07.312Z,75.40
2022-07-29T06:06:10.656Z,75.30
2022-07-29T06:10:13.412Z,75.20
2022-07-29T06:14:16.634Z,75.10
2022-07-29T06:18:21.901Z,74.80
2022-07-29T06:22:25.186Z,74.40
2022-07-29T06:26:31.412Z,74.00
2022-07-29T06:30:35.367Z,73.60
2022-07-29T06:34:40.501Z,73.30
2022-07-29T06:38:50.510Z,72.60
2022-07-29T06:42:54.933Z,72.20
2022-07-29T06:46:57.979Z,71.90
2022-07-29T06:51:01.684Z,71.50
2022-07-29T06:55:08.105Z,71.20
2022-07-29T06:59:12.927Z,70.60
2022-07-29T07:03:17.417Z,70.10
2022-07-29T07:07:22.488Z,70.00
2022-07-29T07:11:25.456Z,69.80
2022-07-29T07:15:39.828Z,69.40
2022-07-29T07:19:51.071Z,69.10
2022-07-29T07:23:57.221Z,67.80
2022-07-29T07:36:37.022Z,66.30
2022-07-29T07:40:42.644Z,65.70
2022-07-29T07:45:12.192Z,64.80
2022-07-29T07:49:12.285Z,64.70
2022-07-29T07:53:22.971Z,64.00
2022-07-29T10:01:32.292Z,45.90
2022-07-29T10:23:55.546Z,42.40
2022-07-29T14:05:42.297Z,29.30
2022-07-29T15:20:09.070Z,45.60
2022-07-29T15:28:34.162Z,45.40
2022-07-29T16:19:48.950Z,43.90
2022-07-29T16:23:52.233Z,43.90
2022-07-29T16:27:59.599Z,43.50
2022-07-29T16:32:02.901Z,42.70
2022-07-29T16:36:08.002Z,41.50
2022-07-29T16:40:18.268Z,39.80
2022-07-29T17:14:31.432Z,36.10
2022-07-29T17:18:37.373Z,37.00
2022-07-29T17:22:42.228Z,38.70
2022-07-29T17:35:47.316Z,40.60
2022-07-29T17:39:50.888Z,40.90
2022-07-29T17:43:54.395Z,42.10
2022-07-29T17:47:57.823Z,43.10
2022-07-29T17:52:01.258Z,43.30
2022-07-29T17:56:05.462Z,43.80
2022-07-29T18:00:10.745Z,43.90
2022-07-29T18:04:15.943Z,44.20
2022-07-29T18:08:20.913Z,45.30
2022-07-29T18:12:34.508Z,45.80
2022-07-29T18:21:15.177Z,46.80
2022-07-29T18:34:00.033Z,46.30
2022-07-29T18:38:04.242Z,46.70
2022-07-29T18:42:15.018Z,46.40
2022-07-29T18:46:18.018Z,46.80
2022-07-29T19:49:41.675Z,46.20
2022-07-29T19:58:08.978Z,46.70
2022-07-29T20:02:13.567Z,46.70
2022-07-29T20:06:19.301Z,47.00
2022-07-29T22:58:24.395Z,49.40
2022-07-29T23:02:35.232Z,49.20
2022-07-29T23:33:31.486Z,50.10
2022-07-29T23:37:34.575Z,50.70
2022-07-29T23:41:37.790Z,50.80
2022-07-29T23:45:44.532Z,50.50
2022-07-29T23:49:50.261Z,50.30
2022-07-29T23:53:54.348Z,50.20
2022-07-29T23:57:57.149Z,50.40
